createdAt,value
2019-02-02T00:06:03.686Z,15.80
2019-02-02T00:12:09.772Z,12.57
2019-02-02T00:18:15.844Z,17.77
2019-02-02T00:24:21.923Z,11.87
2019-02-02T00:30:27.629Z,14.23
2019-02-02T00:36:33.442Z,13.00
2019-02-02T00:42:39.199Z,15.20
2019-02-02T00:48:45.021Z,13.63
2019-02-02T00:54:51.334Z,13.50
2019-02-02T01:00:58.856Z,20.50
2019-02-02T01:07:05.567Z,16.57
2019-02-02T01:13:11.416Z,21.00
2019-02-02T01:19:17.556Z,18.93
2019-02-02T01:25:23.435Z,25.03
2019-02-02T01:31:29.260Z,25.00
2019-02-02T01:37:35.040Z,22.27
2019-02-02T01:43:41.244Z,26.60
2019-02-02T01:49:47.305Z,20.77
2019-02-02T01:55:53.068Z,21.80
2019-02-02T02:01:59.250Z,24.47
2019-02-02T02:08:24.089Z,22.77
2019-02-02T02:14:30.517Z,22.83
2019-02-02T02:20:36.344Z,24.17
2019-02-02T02:26:42.259Z,20.27
2019-02-02T02:32:48.166Z,21.50
2019-02-02T02:38:54.089Z,18.00
2019-02-02T02:45:00.414Z,24.50
2019-02-02T02:51:06.366Z,26.53
2019-02-02T02:57:12.241Z,21.53
2019-02-02T03:03:18.529Z,22.23
2019-02-02T03:09:24.862Z,23.23
2019-02-02T03:15:31.294Z,22.13
2019-02-02T03:21:37.173Z,19.90
2019-02-02T03:27:42.970Z,24.13
2019-02-02T03:33:49.013Z,24.40
2019-02-02T03:39:54.755Z,22.10
2019-02-02T03:46:00.540Z,23.37
2019-02-02T03:52:06.301Z,23.57
2019-02-02T03:58:12.656Z,23.23
2019-02-02T04:04:18.403Z,24.03
2019-02-02T04:10:24.717Z,23.03
2019-02-02T04:16:31.068Z,23.67
2019-02-02T04:22:36.863Z,28.67
2019-02-02T04:28:42.768Z,27.20
2019-02-02T04:34:48.569Z,27.17
2019-02-02T04:40:54.894Z,24.73
2019-02-02T04:47:00.630Z,26.10
2019-02-02T04:53:06.583Z,22.97
2019-02-02T04:59:12.592Z,23.03
2019-02-02T05:05:18.601Z,22.87
2019-02-02T05:11:25.405Z,28.50
2019-02-02T05:17:31.822Z,27.40
2019-02-02T05:23:37.867Z,23.07
2019-02-02T05:29:43.571Z,22.90
2019-02-02T05:35:49.382Z,24.33
2019-02-02T05:41:55.476Z,26.63
2019-02-02T05:48:01.841Z,24.27
2019-02-02T05:54:07.645Z,23.47
2019-02-02T06:00:50.741Z,28.37
2019-02-02T06:06:56.749Z,25.33
2019-02-02T06:13:02.541Z,23.50
2019-02-02T06:19:08.476Z,24.60
2019-02-02T06:25:14.996Z,25.60
2019-02-02T06:31:20.983Z,26.17
2019-02-02T06:37:26.814Z,28.83
2019-02-02T06:43:32.875Z,25.70
2019-02-02T06:49:39.223Z,30.00
2019-02-02T06:55:45.326Z,27.53
2019-02-02T07:01:51.657Z,29.73
2019-02-02T07:07:57.742Z,26.90
2019-02-02T07:14:03.902Z,31.63
2019-02-02T07:20:12.598Z,33.60
2019-02-02T07:26:18.541Z,38.30
2019-02-02T07:32:24.440Z,38.13
2019-02-02T07:38:30.248Z,37.10
2019-02-02T07:44:36.137Z,37.33
2019-02-02T07:50:42.349Z,35.47
2019-02-02T07:56:48.498Z,39.23
2019-02-02T08:02:54.891Z,38.73
2019-02-02T08:09:00.578Z,41.17
2019-02-02T08:15:09.187Z,43.50
2019-02-02T08:21:15.823Z,47.67
2019-02-02T08:27:23.892Z,48.03
2019-02-02T08:33:32.592Z,49.97
2019-02-02T08:39:38.579Z,50.73
2019-02-02T08:45:44.498Z,49.17
2019-02-02T08:51:50.408Z,56.03
2019-02-02T08:57:58.350Z,50.10
2019-02-02T09:04:04.771Z,47.63
2019-02-02T09:10:15.224Z,46.67
2019-02-02T09:16:21.208Z,46.63
2019-02-02T09:22:27.332Z,47.13
2019-02-02T09:28:33.251Z,47.00
2019-02-02T09:34:39.496Z,49.03
2019-02-02T09:40:45.715Z,55.33
2019-02-02T09:46:51.894Z,56.93
2019-02-02T09:52:57.794Z,49.60
2019-02-02T09:59:03.643Z,49.00
2019-02-02T10:05:09.727Z,57.03
2019-02-02T10:11:15.589Z,48.10
2019-02-02T10:17:21.689Z,46.13
2019-02-02T10:23:27.605Z,43.37
2019-02-02T10:29:34.069Z,44.60
2019-02-02T10:35:39.970Z,44.07
2019-02-02T10:41:45.881Z,43.23
2019-02-02T10:47:52.132Z,43.03
2019-02-02T10:53:57.855Z,47.03
2019-02-02T11:00:03.671Z,47.13
2019-02-02T11:06:09.670Z,51.20
2019-02-02T11:12:15.819Z,45.03
2019-02-02T11:18:21.650Z,49.43
2019-02-02T11:24:27.762Z,44.83
2019-02-02T11:30:33.722Z,41.87
2019-02-02T11:36:39.873Z,46.10
2019-02-02T11:42:45.843Z,44.50
2019-02-02T11:48:51.546Z,47.70
2019-02-02T11:54:57.306Z,49.77
2019-02-02T12:01:03.384Z,45.10
2019-02-02T12:07:09.668Z,43.27
2019-02-02T12:13:16.596Z,49.63
2019-02-02T12:19:30.674Z,47.87
2019-02-02T12:25:36.626Z,51.10
2019-02-02T12:31:42.993Z,47.57
2019-02-02T12:37:49.437Z,47.20
2019-02-02T12:43:55.211Z,49.00
2019-02-02T12:50:01.255Z,49.37
2019-02-02T12:56:07.470Z,56.47
2019-02-02T13:02:13.320Z,58.20
2019-02-02T13:08:19.216Z,53.77
2019-02-02T13:14:24.942Z,54.13
2019-02-02T13:20:30.971Z,55.03
2019-02-02T13:26:37.075Z,60.37
2019-02-02T13:32:49.791Z,57.03
2019-02-02T13:38:50.921Z,61.50
2019-02-02T13:44:56.806Z,62.00
2019-02-02T13:51:02.568Z,61.17
2019-02-02T13:57:08.519Z,64.87
2019-02-02T14:03:14.254Z,67.10
2019-02-02T14:09:20.298Z,70.73
2019-02-02T14:15:26.053Z,67.37
2019-02-02T14:21:32.563Z,63.50
2019-02-02T14:27:38.733Z,62.67
2019-02-02T14:33:50.470Z,64.73
2019-02-02T14:39:56.760Z,64.87
2019-02-02T14:46:06.928Z,68.10
2019-02-02T14:52:12.792Z,62.13
2019-02-02T14:58:20.949Z,64.00
2019-02-02T15:04:26.811Z,63.67
2019-02-02T15:10:35.642Z,64.43
2019-02-02T15:16:41.510Z,67.60
2019-02-02T15:22:47.849Z,65.50
2019-02-02T15:28:55.146Z,68.87
2019-02-02T15:35:02.282Z,80.53
2019-02-02T15:41:08.021Z,74.00
2019-02-02T15:47:13.846Z,75.70
2019-02-02T15:53:19.613Z,83.80
2019-02-02T15:59:25.570Z,75.20
2019-02-02T16:05:33.561Z,77.10
2019-02-02T16:11:39.320Z,72.53
2019-02-02T16:17:45.168Z,77.03
2019-02-02T16:23:52.779Z,75.77
2019-02-02T16:29:58.576Z,79.97
2019-02-02T16:36:05.942Z,79.90
2019-02-02T16:42:11.635Z,79.10
2019-02-02T16:48:17.458Z,82.23
2019-02-02T16:54:23.356Z,77.67
2019-02-02T17:00:32.494Z,76.30
2019-02-02T17:06:38.468Z,77.07
2019-02-02T17:12:44.670Z,82.47
2019-02-02T17:18:50.726Z,77.87
2019-02-02T17:24:56.621Z,89.33
2019-02-02T17:31:02.460Z,86.67
2019-02-02T17:37:08.406Z,91.10
2019-02-02T17:43:14.280Z,85.37
2019-02-02T17:49:20.808Z,91.03
2019-02-02T17:55:26.759Z,95.37
2019-02-02T18:01:33.261Z,93.37
2019-02-02T18:07:39.443Z,91.70
2019-02-02T18:13:45.268Z,87.40
2019-02-02T18:19:51.654Z,97.00
2019-02-02T18:25:57.759Z,93.67
2019-02-02T18:32:12.701Z,92.00
2019-02-02T18:38:12.207Z,92.03
2019-02-02T18:44:20.513Z,89.10
2019-02-02T18:50:26.768Z,91.03
2019-02-02T18:56:33.890Z,98.27
2019-02-02T19:02:41.976Z,99.00
2019-02-02T19:08:48.170Z,98.37
2019-02-02T19:14:54.813Z,93.63
2019-02-02T19:21:00.764Z,90.67
2019-02-02T19:27:17.379Z,118.25
2019-02-02T19:33:26.170Z,95.90
2019-02-02T19:39:32.436Z,84.03
2019-02-02T19:45:38.243Z,89.63
2019-02-02T19:51:46.721Z,100.80
2019-02-02T19:57:53.345Z,100.97
2019-02-02T20:04:02.319Z,94.00
2019-02-02T20:10:11.469Z,81.13
2019-02-02T20:16:17.540Z,76.97
2019-02-02T20:22:23.674Z,72.13
2019-02-02T20:28:29.666Z,73.70
2019-02-02T20:34:38.599Z,68.97
2019-02-02T20:40:45.479Z,62.80
2019-02-02T20:46:51.578Z,74.83
2019-02-02T20:52:57.457Z,71.07
2019-02-02T20:59:03.530Z,69.47
2019-02-02T21:05:09.315Z,75.17
2019-02-02T21:11:15.330Z,72.97
2019-02-02T21:17:21.718Z,72.97
2019-02-02T21:23:27.676Z,79.20
2019-02-02T21:29:33.772Z,82.63
2019-02-02T21:35:40.272Z,78.70
2019-02-02T21:41:46.303Z,84.40
2019-02-02T21:47:52.197Z,77.80
2019-02-02T21:53:58.348Z,82.43
2019-02-02T22:00:04.657Z,80.83
2019-02-02T22:06:15.466Z,83.20
2019-02-02T22:12:18.199Z,86.13
2019-02-02T22:18:24.132Z,81.23
2019-02-02T22:24:30.795Z,84.73
2019-02-02T22:30:38.397Z,82.57
2019-02-02T22:36:44.728Z,83.37
2019-02-02T22:42:50.767Z,97.43
2019-02-02T22:48:56.704Z,101.33
2019-02-02T22:55:02.784Z,110.07
2019-02-02T23:01:36.710Z,104.43
2019-02-02T23:08:54.810Z,110.63
2019-02-02T23:16:13.364Z,106.57
2019-02-02T23:22:19.372Z,98.47
2019-02-02T23:28:25.237Z,109.73
2019-02-02T23:34:31.332Z,88.00
2019-02-02T23:40:37.130Z,94.50
2019-02-02T23:46:42.992Z,99.67
2019-02-02T23:52:48.859Z,97.73
2019-02-02T23:58:55.195Z,80.00
